Time;durP1;ratioP1;P1;durP2;ratioP2;P2;SDS_P1;SDS_P2;PMS_P1;PMS_P2;Temp;Humidity;BMP_temperature;BMP_pressure;BME280_temperature;BME280_humidity;BME280_pressure;Samples;Min_cycle;Max_cycle;Signal;HPM_P1;HPM_P2
2022/04/10 00:00:55;;;;;;;2.45;2.25;;;8.80;99.90;;;;;;6209201;23;20005;-73
2022/04/10 00:03:22;;;;;;;2.65;2.25;;;8.80;99.90;;;;;;6206686;23;20004;-73
2022/04/10 00:05:49;;;;;;;2.22;1.85;;;8.80;99.90;;;;;;6182818;23;20005;-73
2022/04/10 00:08:15;;;;;;;2.88;1.67;;;8.80;99.90;;;;;;6179165;23;20012;-73
2022/04/10 00:10:42;;;;;;;2.22;1.83;;;8.70;99.90;;;;;;6210182;23;20020;-73
2022/04/10 00:13:08;;;;;;;2.17;2.08;;;8.60;99.90;;;;;;6204232;23;20005;-73
2022/04/10 00:15:34;;;;;;;2.35;2.25;;;8.60;99.90;;;;;;6182804;23;20084;-73
2022/04/10 00:18:00;;;;;;;2.17;2.08;;;8.50;99.90;;;;;;6206201;23;20009;-73
2022/04/10 00:20:26;;;;;;;3.28;3.08;;;8.50;99.90;;;;;;6207789;23;20376;-74
2022/04/10 00:22:52;;;;;;;2.83;2.35;;;8.50;99.90;;;;;;6179445;23;20012;-73
2022/04/10 00:25:19;;;;;;;2.30;2.20;;;8.50;99.90;;;;;;6182993;23;20004;-73
2022/04/10 00:27:45;;;;;;;2.80;2.70;;;8.30;99.90;;;;;;6205578;23;20076;-73
2022/04/10 00:30:16;;;;;;;2.25;2.15;;;8.40;99.90;;;;;;6208818;23;20011;-73
2022/04/10 00:32:42;;;;;;;2.25;2.15;;;8.30;99.90;;;;;;6205888;23;20001;-73
2022/04/10 00:35:10;;;;;;;2.08;1.98;;;8.30;99.90;;;;;;6208367;23;20447;-73
2022/04/10 00:37:36;;;;;;;2.15;2.05;;;8.30;99.90;;;;;;6206413;23;20055;-73
2022/04/10 00:40:07;;;;;;;2.03;1.90;;;8.30;99.90;;;;;;6209053;23;20508;-73
2022/04/10 00:42:34;;;;;;;2.63;2.08;;;8.20;99.90;;;;;;6205539;23;20005;-74
2022/04/10 00:45:00;;;;;;;1.90;1.80;;;8.10;99.90;;;;;;6208629;23;20055;-73
2022/04/10 00:47:26;;;;;;;2.00;1.90;;;8.10;99.90;;;;;;6205832;23;20062;-73
2022/04/10 00:49:52;;;;;;;2.40;2.20;;;8.10;99.90;;;;;;6207577;23;20004;-73
2022/04/10 00:52:19;;;;;;;1.95;1.85;;;8.00;99.90;;;;;;6207278;23;20005;-74
2022/04/10 00:54:45;;;;;;;2.40;2.15;;;8.00;99.90;;;;;;6209456;23;20332;-73
2022/04/10 00:57:11;;;;;;;3.30;1.80;;;7.90;99.90;;;;;;6205789;23;20012;-73
2022/04/10 00:59:38;;;;;;;2.00;1.90;;;7.80;99.90;;;;;;6207181;23;20004;-73
2022/04/10 01:02:04;;;;;;;2.00;1.90;;;7.90;99.90;;;;;;6204730;23;19997;-73
2022/04/10 01:04:30;;;;;;;2.35;2.17;;;7.80;99.90;;;;;;6208880;23;20001;-73
2022/04/10 01:06:59;;;;;;;3.58;2.05;;;7.80;99.90;;;;;;6206315;23;20642;-73
2022/04/10 01:09:25;;;;;;;2.10;2.00;;;7.90;99.90;;;;;;6207598;23;20024;-73
2022/04/10 01:11:54;;;;;;;1.70;1.60;;;7.90;99.90;;;;;;6205543;23;20000;-73
2022/04/10 01:14:20;;;;;;;2.03;1.92;;;7.80;99.90;;;;;;6208523;23;20587;-73
2022/04/10 01:16:47;;;;;;;2.45;2.25;;;7.80;99.90;;;;;;6204258;23;20008;-73
2022/04/10 01:19:13;;;;;;;2.38;2.17;;;7.80;99.90;;;;;;6181392;23;20001;-73
2022/04/10 01:21:44;;;;;;;2.83;2.17;;;7.70;99.90;;;;;;6178945;23;20015;-73
2022/04/10 01:24:11;;;;;;;2.10;1.98;;;7.70;99.90;;;;;;6208572;23;19996;-73
2022/04/10 01:26:37;;;;;;;2.50;2.40;;;7.50;99.90;;;;;;6205412;23;19996;-73
2022/04/10 01:29:15;;;;;;;1.85;1.75;;;7.40;99.90;;;;;;6181141;23;20001;-73
2022/04/10 01:31:43;;;;;;;2.45;2.25;;;7.30;99.90;;;;;;6204140;23;20076;-73
2022/04/10 01:34:13;;;;;;;2.10;2.00;;;7.30;99.90;;;;;;6206750;23;20001;-73
2022/04/10 01:36:39;;;;;;;2.45;2.22;;;7.40;99.90;;;;;;6177187;23;20083;-73
2022/04/10 01:39:07;;;;;;;2.20;2.10;;;7.40;99.90;;;;;;6181470;23;20035;-73
2022/04/10 01:41:36;;;;;;;2.10;2.00;;;7.40;99.90;;;;;;6203574;23;20432;-73
2022/04/10 01:44:04;;;;;;;2.38;2.22;;;7.40;99.90;;;;;;6207540;23;20003;-73
2022/04/10 01:46:31;;;;;;;2.15;2.05;;;7.30;99.90;;;;;;6177150;23;20015;-73
2022/04/10 01:48:58;;;;;;;2.35;2.17;;;7.30;99.90;;;;;;6182451;23;20015;-74
2022/04/10 01:51:24;;;;;;;2.50;2.40;;;7.20;99.90;;;;;;6203549;23;20325;-77
2022/04/10 01:53:51;;;;;;;2.00;1.90;;;7.10;99.90;;;;;;6207341;23;20058;-77
2022/04/10 01:56:17;;;;;;;4.07;2.40;;;7.20;99.90;;;;;;6185244;23;20012;-77
2022/04/10 01:58:44;;;;;;;2.20;2.10;;;7.10;99.90;;;;;;6186560;23;20062;-77
2022/04/10 02:01:12;;;;;;;2.17;1.98;;;7.10;99.90;;;;;;6212181;23;20084;-77
2022/04/10 02:03:39;;;;;;;2.45;2.22;;;7.00;99.90;;;;;;6186892;23;20337;-77
2022/04/10 02:06:06;;;;;;;2.42;2.22;;;7.00;99.90;;;;;;6186872;23;20424;-77
2022/04/10 02:08:34;;;;;;;4.00;2.38;;;6.90;99.90;;;;;;6213843;23;20421;-77
2022/04/10 02:11:00;;;;;;;2.22;2.13;;;6.90;99.90;;;;;;6213060;23;20021;-77
2022/04/10 02:13:26;;;;;;;2.60;2.40;;;6.90;99.90;;;;;;6213406;23;20011;-77
2022/04/10 02:15:51;;;;;;;2.42;2.33;;;6.90;99.90;;;;;;6213506;23;20004;-77
2022/04/10 02:18:17;;;;;;;2.95;2.58;;;6.90;99.90;;;;;;6187083;23;20348;-77
2022/04/10 02:20:43;;;;;;;3.38;2.30;;;6.80;99.90;;;;;;6186652;23;20013;-77
2022/04/10 02:23:09;;;;;;;2.33;2.22;;;6.80;99.90;;;;;;6213675;23;20003;-77
2022/04/10 02:25:35;;;;;;;2.20;2.10;;;6.80;99.90;;;;;;6186953;23;20066;-77
2022/04/10 02:28:01;;;;;;;2.80;2.22;;;6.70;99.90;;;;;;6213438;23;20068;-77
2022/04/10 02:30:27;;;;;;;2.85;2.65;;;6.70;99.90;;;;;;6213451;23;20079;-77
2022/04/10 02:32:53;;;;;;;3.17;2.35;;;6.70;99.90;;;;;;6213551;23;20032;-77
2022/04/10 02:35:19;;;;;;;2.92;2.75;;;6.60;99.90;;;;;;6213744;23;20364;-77
2022/04/10 02:37:45;;;;;;;2.35;2.25;;;6.60;99.90;;;;;;6213460;23;20007;-77
2022/04/10 02:40:16;;;;;;;2.83;2.65;;;6.60;99.90;;;;;;6213364;23;20336;-77
2022/04/10 02:42:42;;;;;;;2.65;2.45;;;6.60;99.90;;;;;;6214554;23;19997;-77
2022/04/10 02:45:08;;;;;;;2.22;2.13;;;6.50;99.90;;;;;;6215549;23;20008;-77
2022/04/10 02:47:34;;;;;;;2.75;2.55;;;6.60;99.90;;;;;;6188552;23;20020;-77
2022/04/10 02:50:00;;;;;;;2.75;2.55;;;6.60;99.90;;;;;;6215444;23;20063;-77
2022/04/10 02:52:26;;;;;;;2.42;2.28;;;6.50;99.90;;;;;;6215320;23;20371;-77
2022/04/10 02:54:52;;;;;;;2.58;2.38;;;6.60;99.90;;;;;;6215522;23;20055;-77
2022/04/10 02:57:18;;;;;;;2.47;2.38;;;6.50;99.90;;;;;;6215367;23;20001;-77
2022/04/10 02:59:44;;;;;;;3.00;2.80;;;6.40;99.90;;;;;;6215305;23;20015;-77
2022/04/10 03:02:10;;;;;;;3.65;2.33;;;6.40;99.90;;;;;;6215292;23;20000;-77
2022/04/10 03:04:36;;;;;;;2.90;2.70;;;6.40;99.90;;;;;;6188489;23;20001;-77
2022/04/10 03:07:02;;;;;;;2.10;1.90;;;6.50;99.90;;;;;;6215366;23;20001;-77
2022/04/10 03:09:30;;;;;;;2.22;2.13;;;6.50;99.90;;;;;;6188281;23;20332;-77
2022/04/10 03:11:56;;;;;;;2.22;2.13;;;6.40;99.90;;;;;;6215347;23;20000;-77
2022/04/10 03:14:21;;;;;;;1.92;1.83;;;6.40;99.90;;;;;;6215089;23;20491;-77
2022/04/10 03:16:57;;;;;;;2.20;2.10;;;6.30;99.90;;;;;;6188422;23;20005;-77
2022/04/10 03:19:23;;;;;;;2.60;2.38;;;6.20;99.90;;;;;;6215193;23;20004;-77
2022/04/10 03:21:49;;;;;;;2.40;2.30;;;6.10;99.90;;;;;;6215141;23;20001;-77
2022/04/10 03:24:17;;;;;;;2.35;2.15;;;6.10;99.90;;;;;;6215081;23;20333;-77
2022/04/10 03:26:43;;;;;;;3.25;1.90;;;6.10;99.90;;;;;;6214992;23;20375;-77
2022/04/10 03:29:09;;;;;;;2.30;2.20;;;6.10;99.90;;;;;;6215085;23;20003;-77
2022/04/10 03:31:35;;;;;;;2.85;2.45;;;6.10;99.90;;;;;;6215361;23;20369;-77
2022/04/10 03:34:01;;;;;;;2.05;1.95;;;6.10;99.90;;;;;;6214794;23;20024;-77
2022/04/10 03:36:26;;;;;;;1.70;1.60;;;6.10;99.90;;;;;;6215009;23;20083;-77
2022/04/10 03:38:52;;;;;;;1.83;1.73;;;6.10;99.90;;;;;;6214862;23;20016;-77
2022/04/10 03:41:18;;;;;;;2.70;2.50;;;6.00;99.90;;;;;;6214890;23;20004;-77
2022/04/10 03:43:44;;;;;;;2.17;2.03;;;6.00;99.90;;;;;;6214956;23;20024;-77
2022/04/10 03:46:09;;;;;;;2.30;2.17;;;6.00;99.90;;;;;;6214976;23;20325;-77
2022/04/10 03:48:35;;;;;;;2.45;2.30;;;6.00;99.90;;;;;;6214998;23;19997;-77
2022/04/10 03:51:01;;;;;;;2.28;2.17;;;5.90;99.90;;;;;;6214530;23;20063;-76
2022/04/10 03:53:27;;;;;;;2.03;1.90;;;5.90;99.90;;;;;;6188015;23;20510;-77
2022/04/10 03:55:53;;;;;;;1.92;1.83;;;5.90;99.90;;;;;;6214862;23;20043;-77
2022/04/10 03:58:18;;;;;;;1.30;1.20;;;5.90;99.90;;;;;;6214788;23;20015;-77
2022/04/10 04:00:45;;;;;;;0.88;0.88;;;6.00;96.80;;;;;;6187955;23;20004;-77
2022/04/10 04:03:10;;;;;;;1.98;0.80;;;6.30;91.60;;;;;;6188030;23;20005;-77
2022/04/10 04:05:36;;;;;;;0.70;0.70;;;6.50;89.50;;;;;;6214789;23;20012;-77
2022/04/10 04:08:03;;;;;;;0.95;0.70;;;6.80;87.40;;;;;;6214642;23;20055;-77
2022/04/10 04:10:29;;;;;;;2.85;2.30;;;7.00;81.40;;;;;;6214458;23;20079;-77
2022/04/10 04:12:55;;;;;;;3.50;2.50;;;7.00;90.90;;;;;;6214347;23;20436;-77
2022/04/10 04:15:20;;;;;;;3.20;2.50;;;6.80;96.30;;;;;;6214633;23;20086;-77
2022/04/10 04:17:46;;;;;;;3.00;2.80;;;6.70;97.10;;;;;;6214669;23;20072;-77
2022/04/10 04:20:13;;;;;;;4.15;2.95;;;6.50;99.80;;;;;;6214198;23;20460;-77
2022/04/10 04:22:39;;;;;;;2.88;2.42;;;6.50;99.90;;;;;;6214609;23;20454;-77
2022/04/10 04:25:06;;;;;;;2.80;2.60;;;6.40;99.90;;;;;;6214407;23;20223;-77
2022/04/10 04:27:32;;;;;;;3.58;2.45;;;6.40;99.90;;;;;;6214661;23;20000;-77
2022/04/10 04:29:59;;;;;;;3.03;2.83;;;6.50;99.90;;;;;;6187616;23;20008;-77
2022/04/10 04:32:24;;;;;;;2.65;2.45;;;6.50;99.90;;;;;;6187589;23;20080;-77
2022/04/10 04:34:50;;;;;;;2.28;2.17;;;6.40;99.90;;;;;;6187524;23;20039;-77
2022/04/10 04:37:16;;;;;;;2.90;2.70;;;6.50;99.90;;;;;;6214453;23;20004;-77
2022/04/10 04:39:41;;;;;;;3.10;2.60;;;6.50;99.90;;;;;;6214136;23;20080;-77
2022/04/10 04:42:07;;;;;;;3.10;2.90;;;6.30;99.90;;;;;;6214163;23;20436;-76
2022/04/10 04:44:33;;;;;;;2.70;2.55;;;6.30;99.90;;;;;;6187821;23;20359;-76
2022/04/10 04:46:59;;;;;;;3.00;2.80;;;6.30;99.90;;;;;;6214199;23;20090;-77
2022/04/10 04:49:26;;;;;;;2.60;2.40;;;6.20;99.90;;;;;;6187499;23;20039;-76
2022/04/10 04:51:52;;;;;;;2.22;2.13;;;6.20;99.90;;;;;;6214268;23;20004;-77
2022/04/10 04:54:18;;;;;;;2.50;2.30;;;6.20;99.90;;;;;;6214299;23;20004;-76
2022/04/10 04:56:43;;;;;;;3.03;2.80;;;6.30;99.90;;;;;;6214318;23;19997;-76
2022/04/10 04:59:09;;;;;;;3.83;2.50;;;6.20;99.90;;;;;;6213856;23;20078;-77
2022/04/10 05:01:35;;;;;;;2.90;2.70;;;6.20;99.90;;;;;;6214159;23;20004;-76
2022/04/10 05:04:01;;;;;;;3.50;2.92;;;6.20;99.90;;;;;;6213945;23;20050;-77
2022/04/10 05:06:27;;;;;;;2.80;2.60;;;6.20;99.90;;;;;;6187238;23;20000;-77
2022/04/10 05:08:53;;;;;;;2.95;2.40;;;6.20;99.90;;;;;;6213948;23;20001;-77
2022/04/10 05:11:19;;;;;;;2.58;2.22;;;6.30;99.90;;;;;;6213917;23;20456;-77
2022/04/10 05:13:45;;;;;;;1.42;1.30;;;6.40;99.90;;;;;;6214112;23;20011;-77
2022/04/10 05:16:11;;;;;;;1.60;1.50;;;6.50;91.70;;;;;;6213844;23;20130;-77
2022/04/10 05:18:36;;;;;;;1.15;1.05;;;6.60;91.20;;;;;;6213977;23;20310;-77
2022/04/10 05:21:02;;;;;;;0.75;0.75;;;6.70;85.30;;;;;;6213748;23;20063;-76
2022/04/10 05:23:29;;;;;;;1.02;0.80;;;6.90;74.90;;;;;;6214024;23;20004;-76
2022/04/10 05:25:55;;;;;;;0.60;0.60;;;7.10;69.10;;;;;;6213961;23;19997;-77
2022/04/10 05:28:22;;;;;;;1.20;0.85;;;7.20;69.60;;;;;;6214048;23;20287;-76
2022/04/10 05:30:47;;;;;;;1.02;1.02;;;7.40;70.40;;;;;;6213763;23;20482;-76
2022/04/10 05:33:14;;;;;;;2.03;0.90;;;7.50;68.90;;;;;;6213651;23;20083;-77
2022/04/10 05:35:39;;;;;;;1.20;1.08;;;7.70;66.10;;;;;;6213943;23;20000;-77
2022/04/10 05:38:05;;;;;;;3.45;1.83;;;7.70;72.60;;;;;;6213653;23;20011;-77
2022/04/10 05:40:31;;;;;;;1.83;1.73;;;7.60;82.60;;;;;;6213686;23;20005;-77
2022/04/10 05:42:57;;;;;;;2.03;1.80;;;7.30;88.10;;;;;;6187057;23;20001;-77
2022/04/10 05:45:23;;;;;;;2.22;2.03;;;7.30;90.10;;;;;;6213908;23;20007;-77
2022/04/10 05:47:49;;;;;;;3.38;1.77;;;7.30;91.00;;;;;;6186942;23;20088;-77
2022/04/10 05:50:15;;;;;;;3.40;1.80;;;7.40;91.80;;;;;;6213616;23;20000;-77
2022/04/10 05:52:46;;;;;;;1.70;1.60;;;7.40;91.40;;;;;;6213646;23;20456;-77
2022/04/10 05:55:17;;;;;;;3.22;1.55;;;7.40;91.00;;;;;;6213782;23;20001;-77
2022/04/10 05:57:43;;;;;;;2.88;1.70;;;7.50;91.50;;;;;;6186916;23;20008;-77
2022/04/10 06:00:12;;;;;;;1.70;1.60;;;7.60;92.60;;;;;;6213459;23;20024;-77
2022/04/10 06:02:39;;;;;;;1.55;1.45;;;7.70;92.40;;;;;;6213689;23;20007;-76
2022/04/10 06:05:05;;;;;;;1.58;1.48;;;7.80;92.20;;;;;;6213446;23;20432;-77
2022/04/10 06:07:31;;;;;;;3.42;2.00;;;7.80;92.40;;;;;;6214148;23;20076;-77
2022/04/10 06:09:58;;;;;;;1.52;1.42;;;7.90;92.50;;;;;;6214576;23;20044;-77
2022/04/10 06:12:24;;;;;;;1.95;1.83;;;7.90;91.90;;;;;;6215411;23;20001;-77
2022/04/10 06:14:53;;;;;;;5.40;4.38;;;7.90;91.60;;;;;;6215199;23;20008;-77
2022/04/10 06:17:18;;;;;;;3.92;3.47;;;8.00;92.10;;;;;;6190034;23;20012;-77
2022/04/10 06:19:45;;;;;;;6.68;4.38;;;8.10;91.70;;;;;;6217152;23;20008;-77
2022/04/10 06:22:11;;;;;;;3.03;2.80;;;8.10;90.80;;;;;;6217205;23;20004;-77
2022/04/10 06:24:37;;;;;;;7.82;3.40;;;8.20;90.60;;;;;;6217265;23;20000;-77
2022/04/10 06:27:03;;;;;;;10.98;5.45;;;8.30;91.60;;;;;;6217085;23;20325;-77
2022/04/10 06:29:29;;;;;;;3.33;3.00;;;8.30;91.10;;;;;;6217038;23;20306;-77
2022/04/10 06:31:55;;;;;;;17.50;6.20;;;8.40;91.10;;;;;;6217151;23;20500;-77
2022/04/10 06:34:21;;;;;;;6.10;3.40;;;8.50;91.30;;;;;;6217097;23;20047;-77
2022/04/10 06:36:47;;;;;;;15.10;4.22;;;8.50;91.20;;;;;;6217100;23;20071;-77
2022/04/10 06:39:14;;;;;;;8.52;2.70;;;8.60;91.20;;;;;;6217052;23;19996;-77
2022/04/10 06:41:39;;;;;;;3.70;1.70;;;8.70;91.80;;;;;;6216729;23;20083;-77
2022/04/10 06:44:05;;;;;;;2.42;1.50;;;8.70;90.40;;;;;;6217108;23;20004;-77
2022/04/10 06:46:31;;;;;;;1.77;1.63;;;8.80;89.60;;;;;;6217064;23;20054;-77
2022/04/10 06:48:57;;;;;;;1.58;1.48;;;8.80;89.30;;;;;;6216962;23;20005;-77
2022/04/10 06:51:22;;;;;;;3.20;2.05;;;8.90;89.80;;;;;;6190351;23;20008;-77
2022/04/10 06:53:48;;;;;;;2.95;2.50;;;9.00;90.20;;;;;;6216880;23;20336;-77
2022/04/10 06:56:15;;;;;;;4.57;2.63;;;9.00;90.80;;;;;;6189792;23;20016;-77
2022/04/10 06:58:41;;;;;;;2.80;1.60;;;9.10;90.20;;;;;;6216710;23;20001;-77
2022/04/10 07:01:07;;;;;;;1.98;1.77;;;9.10;86.40;;;;;;6190029;23;20013;-77
2022/04/10 07:03:34;;;;;;;2.08;1.20;;;9.10;86.60;;;;;;6216806;23;20003;-77
2022/04/10 07:06:00;;;;;;;1.67;1.30;;;9.20;86.30;;;;;;6216709;23;20499;-77
2022/04/10 07:08:26;;;;;;;0.77;0.70;;;9.30;82.60;;;;;;6216782;23;20004;-77
2022/04/10 07:10:55;;;;;;;1.67;1.55;;;9.30;80.00;;;;;;6216491;23;20452;-78
2022/04/10 07:13:25;;;;;;;0.70;0.70;;;9.40;82.20;;;;;;6216808;23;20004;-77
2022/04/10 07:15:52;;;;;;;1.33;1.23;;;9.40;73.50;;;;;;6190092;23;20055;-77
2022/04/10 07:18:19;;;;;;;1.98;0.80;;;9.50;71.80;;;;;;6190133;23;20059;-78
2022/04/10 07:20:45;;;;;;;0.80;0.50;;;9.60;65.60;;;;;;6190042;23;20009;-78
2022/04/10 07:25:55;;;;;;;0.80;0.80;;;9.70;66.80;;;;;;6213318;23;20004;-77
2022/04/10 07:28:21;;;;;;;1.10;1.00;;;9.80;65.50;;;;;;6208084;23;20001;-77
2022/04/10 07:30:47;;;;;;;0.73;0.73;;;9.90;64.90;;;;;;6211095;23;20001;-78
2022/04/10 07:33:13;;;;;;;0.80;0.80;;;9.90;62.20;;;;;;6212590;23;20553;-77
2022/04/10 07:35:47;;;;;;;0.88;0.80;;;10.00;64.20;;;;;;6212161;23;20019;-77
2022/04/10 07:38:17;;;;;;;0.55;0.55;;;10.10;66.90;;;;;;6183944;23;20004;-77
2022/04/10 07:40:43;;;;;;;1.00;0.75;;;10.20;61.30;;;;;;6183265;23;20050;-77
2022/04/10 07:43:12;;;;;;;0.60;0.60;;;10.30;60.30;;;;;;6181590;23;20322;-77
2022/04/10 07:48:22;;;;;;;0.43;0.43;;;10.40;54.60;;;;;;6209133;23;20393;-73
2022/04/10 07:50:48;;;;;;;0.85;0.70;;;10.40;51.50;;;;;;6180994;23;20043;-73
2022/04/10 07:53:13;;;;;;;0.63;0.63;;;10.50;50.30;;;;;;6208113;23;20602;-73
2022/04/10 07:55:39;;;;;;;0.77;0.77;;;10.60;51.40;;;;;;6207031;23;20661;-73
2022/04/10 07:58:05;;;;;;;1.35;0.80;;;10.70;52.40;;;;;;6208457;23;20531;-73
2022/04/10 08:00:33;;;;;;;0.73;0.73;;;10.80;51.60;;;;;;6180940;23;20013;-73
2022/04/10 08:03:00;;;;;;;0.50;0.50;;;10.80;52.60;;;;;;6180544;23;20005;-73
2022/04/10 08:05:26;;;;;;;0.75;0.75;;;10.80;50.10;;;;;;6182528;23;20449;-73
2022/04/10 08:07:51;;;;;;;0.52;0.50;;;10.90;48.70;;;;;;6183229;23;20001;-73
2022/04/10 08:10:17;;;;;;;0.60;0.60;;;11.00;49.70;;;;;;6206733;23;20020;-73
2022/04/10 08:12:44;;;;;;;2.03;0.80;;;11.00;47.80;;;;;;6210188;23;20058;-73
2022/04/10 08:15:11;;;;;;;1.15;0.98;;;11.00;47.90;;;;;;6208963;23;20005;-73
2022/04/10 08:17:37;;;;;;;3.88;0.65;;;11.00;47.90;;;;;;6209809;23;20083;-73
2022/04/10 08:20:04;;;;;;;13.95;0.70;;;11.10;48.00;;;;;;6182886;23;20005;-73
2022/04/10 08:22:32;;;;;;;0.43;0.43;;;11.30;45.30;;;;;;6209763;23;20068;-73
2022/04/10 08:25:02;;;;;;;0.47;0.43;;;11.30;46.30;;;;;;6211156;23;20075;-73
2022/04/10 08:27:29;;;;;;;1.25;0.57;;;11.20;46.00;;;;;;6212078;23;20047;-78
2022/04/10 08:29:55;;;;;;;0.88;0.65;;;11.30;46.00;;;;;;6211874;23;20046;-77
2022/04/10 08:32:21;;;;;;;5.63;1.30;;;11.50;45.90;;;;;;6212858;23;20004;-79
2022/04/10 08:34:46;;;;;;;1.60;0.88;;;11.70;49.30;;;;;;6212734;23;20008;-77
2022/04/10 08:37:12;;;;;;;3.70;1.25;;;11.90;47.00;;;;;;6212330;23;20001;-77
2022/04/10 08:39:38;;;;;;;2.50;0.70;;;11.90;40.20;;;;;;6211122;23;20559;-77
2022/04/10 08:42:06;;;;;;;0.68;0.63;;;11.90;40.90;;;;;;6210559;23;19997;-77
2022/04/10 08:44:32;;;;;;;0.50;0.50;;;11.90;41.80;;;;;;6184163;23;20380;-78
2022/04/10 08:46:59;;;;;;;1.02;0.60;;;12.00;38.50;;;;;;6210911;23;20021;-77
2022/04/10 08:49:26;;;;;;;0.55;0.55;;;12.00;40.60;;;;;;6210634;23;20638;-78
2022/04/10 08:51:53;;;;;;;0.82;0.77;;;12.00;40.70;;;;;;6184058;23;20084;-77
2022/04/10 08:54:23;;;;;;;3.17;0.70;;;12.20;41.30;;;;;;6212467;23;20618;-77
2022/04/10 08:56:52;;;;;;;0.60;0.60;;;12.20;44.90;;;;;;6211023;23;20008;-77
2022/04/10 08:59:19;;;;;;;0.77;0.77;;;12.30;43.20;;;;;;6210854;23;20425;-78
2022/04/10 09:01:46;;;;;;;2.25;0.45;;;12.30;44.50;;;;;;6211654;23;20039;-78
2022/04/10 09:04:14;;;;;;;2.03;0.70;;;12.30;41.10;;;;;;6210355;23;20076;-78
2022/04/10 09:06:43;;;;;;;1.13;0.70;;;12.30;40.70;;;;;;6210459;23;20005;-77
2022/04/10 09:09:18;;;;;;;0.85;0.70;;;12.30;44.20;;;;;;6211623;23;20008;-77
2022/04/10 09:11:44;;;;;;;3.72;0.85;;;12.40;43.90;;;;;;6211742;23;20024;-77
2022/04/10 09:14:10;;;;;;;1.10;0.68;;;12.40;44.50;;;;;;6209451;23;20009;-78
2022/04/10 09:16:36;;;;;;;1.83;1.30;;;12.40;43.10;;;;;;6212192;23;20043;-78
2022/04/10 09:19:10;;;;;;;2.42;0.98;;;12.50;46.70;;;;;;6211960;23;20066;-78
2022/04/10 09:21:39;;;;;;;0.90;0.90;;;12.50;44.00;;;;;;6209199;23;20008;-78
2022/04/10 09:24:07;;;;;;;0.70;0.70;;;12.50;46.70;;;;;;6205611;23;20000;-78
2022/04/10 09:26:47;;;;;;;0.70;0.70;;;12.50;46.20;;;;;;6182152;23;20011;-73
2022/04/10 09:29:21;;;;;;;0.90;0.80;;;12.50;47.00;;;;;;6181446;23;20004;-74
2022/04/10 09:31:47;;;;;;;0.82;0.77;;;12.40;46.30;;;;;;6208699;23;20008;-74
2022/04/10 09:34:21;;;;;;;0.73;0.68;;;12.40;47.00;;;;;;6207595;23;20015;-74
2022/04/10 09:36:48;;;;;;;3.10;0.75;;;12.40;45.70;;;;;;6180911;23;20425;-74
2022/04/10 09:39:16;;;;;;;1.52;0.70;;;12.40;47.00;;;;;;6208016;23;20024;-74
2022/04/10 09:41:43;;;;;;;0.63;0.63;;;12.50;46.90;;;;;;6207513;23;20043;-74
2022/04/10 09:44:19;;;;;;;2.10;1.00;;;12.60;48.00;;;;;;6180644;23;20016;-74
2022/04/10 09:47:00;;;;;;;0.93;0.93;;;12.70;49.80;;;;;;6207662;23;20027;-74
2022/04/10 09:49:32;;;;;;;2.78;0.60;;;12.70;51.40;;;;;;6180914;23;20007;-74
2022/04/10 09:51:59;;;;;;;0.47;0.47;;;12.70;50.10;;;;;;6207000;23;20008;-74
2022/04/10 09:54:25;;;;;;;0.73;0.70;;;12.70;48.80;;;;;;6208842;23;20000;-73
2022/04/10 09:56:53;;;;;;;0.70;0.70;;;12.70;47.50;;;;;;6207998;23;20082;-74
2022/04/10 09:59:26;;;;;;;1.38;0.80;;;12.80;47.90;;;;;;6207696;23;20001;-74
2022/04/10 10:01:53;;;;;;;1.15;0.73;;;12.70;46.40;;;;;;6207896;23;20009;-74
2022/04/10 10:04:20;;;;;;;0.90;0.80;;;12.80;48.00;;;;;;6206554;23;20001;-74
2022/04/10 10:06:47;;;;;;;2.45;1.48;;;12.90;46.80;;;;;;6205796;23;20001;-74
2022/04/10 10:09:13;;;;;;;1.10;1.00;;;13.00;48.80;;;;;;6206636;23;19996;-74
2022/04/10 10:11:41;;;;;;;1.45;1.05;;;13.00;46.80;;;;;;6205701;23;20043;-73
2022/04/10 10:14:10;;;;;;;0.95;0.95;;;13.00;46.50;;;;;;6205547;23;20337;-74
2022/04/10 10:16:36;;;;;;;2.92;1.75;;;12.90;45.90;;;;;;6206436;23;20008;-74
2022/04/10 10:19:02;;;;;;;1.13;1.10;;;12.90;49.20;;;;;;6205875;23;20009;-73
2022/04/10 10:21:28;;;;;;;2.03;1.80;;;13.00;48.00;;;;;;6205448;23;20012;-73
2022/04/10 10:23:54;;;;;;;1.00;1.00;;;13.00;48.00;;;;;;6180114;23;20003;-73
2022/04/10 10:27:01;;;;;;;1.67;1.00;;;13.10;42.80;;;;;;6206240;23;20429;-73
2022/04/10 10:29:43;;;;;;;1.20;1.10;;;13.00;41.40;;;;;;6206055;23;20451;-74
2022/04/10 10:32:14;;;;;;;0.90;0.90;;;13.10;40.80;;;;;;6180228;23;20030;-74
2022/04/10 10:34:42;;;;;;;0.90;0.90;;;13.10;42.80;;;;;;6206893;23;20096;-74
2022/04/10 10:37:12;;;;;;;0.80;0.80;;;13.10;40.10;;;;;;6207455;23;20028;-73
2022/04/10 10:39:45;;;;;;;1.25;0.93;;;13.10;42.10;;;;;;6180850;23;20008;-74
2022/04/10 10:42:12;;;;;;;0.77;0.77;;;13.20;42.30;;;;;;6206602;23;20000;-73
2022/04/10 10:44:39;;;;;;;1.98;1.17;;;13.20;41.80;;;;;;6205269;23;20032;-74
2022/04/10 10:47:05;;;;;;;1.08;1.08;;;13.20;42.20;;;;;;6180068;23;20000;-73
2022/04/10 10:49:42;;;;;;;1.83;1.33;;;13.30;44.00;;;;;;6205331;23;20001;-74
2022/04/10 10:52:09;;;;;;;0.80;0.80;;;13.50;42.60;;;;;;6205858;23;19996;-73
2022/04/10 10:54:42;;;;;;;1.85;1.42;;;13.70;41.50;;;;;;6206043;23;20333;-74
2022/04/10 10:57:42;;;;;;;2.83;1.27;;;13.80;42.30;;;;;;6207185;23;20650;-74
2022/04/10 11:00:20;;;;;;;0.90;0.90;;;13.90;43.50;;;;;;6181637;23;20564;-74
2022/04/10 11:02:51;;;;;;;1.25;0.90;;;13.90;39.90;;;;;;6208717;23;20403;-74
2022/04/10 11:05:35;;;;;;;0.80;0.80;;;14.00;41.20;;;;;;6209983;23;20343;-74
2022/04/10 11:08:05;;;;;;;0.80;0.80;;;14.10;41.00;;;;;;6210181;23;20001;-74
2022/04/10 11:10:35;;;;;;;1.42;0.80;;;14.20;39.40;;;;;;6209011;23;20013;-74
2022/04/10 11:13:04;;;;;;;0.98;0.80;;;14.10;39.70;;;;;;6183040;23;20019;-73
2022/04/10 11:15:50;;;;;;;1.30;0.70;;;14.20;38.80;;;;;;6210538;23;20001;-74
2022/04/10 11:18:31;;;;;;;0.82;0.82;;;14.20;37.80;;;;;;6209041;23;20039;-73
2022/04/10 11:21:27;;;;;;;0.80;0.80;;;14.30;40.00;;;;;;6208881;23;20086;-74
2022/04/10 11:23:56;;;;;;;0.80;0.77;;;14.40;40.50;;;;;;6159566;23;20001;-73
2022/04/10 11:26:24;;;;;;;1.75;0.80;;;14.50;37.50;;;;;;6209631;23;20008;-73
2022/04/10 11:28:57;;;;;;;0.75;0.75;;;14.50;37.00;;;;;;6210309;23;20001;-74
2022/04/10 11:31:31;;;;;;;0.95;0.95;;;14.50;37.90;;;;;;6210763;23;20004;-74
2022/04/10 11:34:19;;;;;;;1.25;1.20;;;14.60;38.40;;;;;;6184200;23;20013;-73
2022/04/10 11:36:48;;;;;;;1.42;1.33;;;14.70;38.70;;;;;;6209488;23;20004;-73
2022/04/10 11:39:15;;;;;;;4.15;0.93;;;14.80;39.20;;;;;;6210225;23;20012;-73
2022/04/10 11:41:42;;;;;;;1.30;1.20;;;15.00;38.70;;;;;;6209814;23;20009;-73
2022/04/10 11:44:09;;;;;;;1.77;1.48;;;15.00;39.00;;;;;;6210644;23;20007;-74
2022/04/10 11:46:36;;;;;;;1.52;1.42;;;15.00;40.50;;;;;;6211397;23;20076;-73
2022/04/10 11:49:02;;;;;;;1.38;1.35;;;15.20;40.70;;;;;;6210040;23;20001;-74
2022/04/10 11:51:29;;;;;;;1.75;1.38;;;15.10;40.10;;;;;;6210896;23;20009;-73
2022/04/10 11:53:55;;;;;;;1.60;1.20;;;15.20;41.60;;;;;;6212326;23;20000;-74
2022/04/10 11:56:22;;;;;;;2.65;1.38;;;15.30;40.40;;;;;;6211475;23;20004;-74
2022/04/10 11:58:47;;;;;;;2.20;2.00;;;15.40;41.80;;;;;;6185098;23;20020;-73
2022/04/10 12:01:14;;;;;;;2.08;1.67;;;15.50;41.70;;;;;;6185195;23;20008;-73
2022/04/10 12:03:41;;;;;;;1.60;1.50;;;15.60;42.10;;;;;;6184703;23;20008;-73
2022/04/10 12:06:09;;;;;;;2.65;1.67;;;15.80;42.40;;;;;;6206637;23;20089;-73
2022/04/10 12:08:39;;;;;;;2.15;1.95;;;15.80;40.30;;;;;;6207407;23;20054;-73
2022/04/10 12:11:04;;;;;;;1.60;1.50;;;15.70;40.30;;;;;;6209264;23;20041;-73
2022/04/10 12:13:34;;;;;;;1.90;1.80;;;15.90;42.00;;;;;;6210924;23;20012;-73
2022/04/10 12:16:16;;;;;;;2.65;1.83;;;16.00;40.70;;;;;;6210921;23;20012;-74
2022/04/10 12:18:49;;;;;;;1.77;1.65;;;16.00;40.90;;;;;;6211168;23;20353;-73
2022/04/10 12:21:16;;;;;;;1.40;1.40;;;16.00;41.70;;;;;;6184633;23;20095;-74
2022/04/10 12:23:42;;;;;;;2.10;1.90;;;16.10;40.70;;;;;;6183931;23;20409;-74
2022/04/10 12:26:09;;;;;;;2.15;2.03;;;16.10;42.00;;;;;;6211287;23;20405;-73
2022/04/10 12:28:37;;;;;;;4.20;2.20;;;16.10;43.10;;;;;;6184591;23;20087;-73
2022/04/10 12:31:03;;;;;;;2.45;2.30;;;16.20;43.50;;;;;;6210186;23;20001;-73
2022/04/10 12:33:33;;;;;;;2.50;2.30;;;16.30;42.00;;;;;;6211440;23;20000;-73
2022/04/10 12:35:59;;;;;;;2.03;1.92;;;16.40;40.30;;;;;;6184216;23;20004;-74
2022/04/10 12:38:29;;;;;;;2.75;2.42;;;16.40;41.80;;;;;;6209467;23;20005;-74
2022/04/10 12:41:04;;;;;;;4.22;2.30;;;16.50;43.60;;;;;;6183758;23;20046;-73
2022/04/10 12:43:30;;;;;;;1.90;1.80;;;16.70;44.90;;;;;;6210667;23;20001;-73
2022/04/10 12:46:21;;;;;;;1.90;1.80;;;16.50;40.60;;;;;;6206688;23;20008;-74
2022/04/10 12:48:47;;;;;;;1.70;1.60;;;16.70;40.00;;;;;;6207049;23;20005;-73
2022/04/10 12:51:14;;;;;;;1.98;1.88;;;16.60;38.90;;;;;;6206838;23;20015;-73
2022/04/10 12:53:47;;;;;;;1.45;1.40;;;16.60;40.60;;;;;;6208876;23;20009;-79
2022/04/10 12:56:21;;;;;;;2.25;2.15;;;16.70;38.90;;;;;;6209961;23;20000;-79
2022/04/10 12:58:49;;;;;;;2.00;1.90;;;16.70;41.40;;;;;;6211104;23;20005;-78
2022/04/10 13:01:28;;;;;;;2.33;2.03;;;16.80;42.30;;;;;;6212429;23;20008;-78